Time;durP1;ratioP1;P1;durP2;ratioP2;P2;SDS_P1;SDS_P2;PMS_P1;PMS_P2;Temp;Humidity;BMP_temperature;BMP_pressure;BME280_temperature;BME280_humidity;BME280_pressure;Samples;Min_cycle;Max_cycle;Signal;HPM_P1;HPM_P2
2021/12/07 00:02:01;;;;;;;3.50;3.20;;;;;;;;;;4994855;28;20165;-52
2021/12/07 00:04:27;;;;;;;3.50;3.28;;;;;;;;;;4995085;28;20160;-52
2021/12/07 00:06:53;;;;;;;4.55;4.15;;;;;;;;;;4993797;28;20185;-52
2021/12/07 00:09:21;;;;;;;3.55;3.25;;;;;;;;;;4995339;28;20212;-52
2021/12/07 00:11:48;;;;;;;3.75;3.45;;;;;;;;;;4994939;28;20165;-51
2021/12/07 00:14:22;;;;;;;3.30;3.03;;;;;;;;;;4995345;28;20193;-52
2021/12/07 00:16:48;;;;;;;3.63;2.83;;;;;;;;;;4995128;28;20161;-52
2021/12/07 00:19:14;;;;;;;3.15;2.95;;;;;;;;;;4995072;28;20193;-52
2021/12/07 00:21:41;;;;;;;3.53;2.55;;;;;;;;;;4994307;28;20169;-50
2021/12/07 00:24:08;;;;;;;2.45;2.25;;;;;;;;;;4994483;28;20197;-51
2021/12/07 00:26:34;;;;;;;2.88;2.70;;;;;;;;;;4994469;28;20173;-52
2021/12/07 00:29:02;;;;;;;2.87;2.67;;;;;;;;;;4994445;28;20652;-52
2021/12/07 00:31:37;;;;;;;2.75;2.55;;;;;;;;;;4993892;28;20438;-52
2021/12/07 00:36:31;;;;;;;2.60;2.40;;;;;;;;;;4995074;28;20183;-53
2021/12/07 00:38:58;;;;;;;2.97;2.77;;;;;;;;;;4994975;28;20169;-51
2021/12/07 00:41:24;;;;;;;2.47;2.38;;;;;;;;;;4994259;28;20403;-51
2021/12/07 00:43:50;;;;;;;2.75;2.10;;;;;;;;;;4994313;28;20232;-52
2021/12/07 00:46:16;;;;;;;2.72;2.53;;;;;;;;;;4994062;28;20182;-51
2021/12/07 00:48:42;;;;;;;2.27;2.17;;;;;;;;;;4994325;28;20169;-52
2021/12/07 00:51:08;;;;;;;2.60;2.50;;;;;;;;;;4994043;28;20757;-52
2021/12/07 00:53:35;;;;;;;2.45;2.35;;;;;;;;;;4993633;28;20436;-52
2021/12/07 00:56:01;;;;;;;2.50;2.30;;;;;;;;;;4993496;28;20200;-52
2021/12/07 00:58:28;;;;;;;2.83;2.63;;;;;;;;;;4993414;28;20178;-52
2021/12/07 01:00:59;;;;;;;2.75;2.55;;;;;;;;;;4993089;28;20169;-52
2021/12/07 01:03:26;;;;;;;3.03;2.83;;;;;;;;;;4993307;28;20188;-51
2021/12/07 01:06:02;;;;;;;2.65;2.45;;;;;;;;;;4992675;28;20543;-52
2021/12/07 01:08:53;;;;;;;3.33;3.00;;;;;;;;;;4993341;28;20200;-52
2021/12/07 01:25:05;;;;;;;5.07;2.40;;;;;;;;;;4993122;28;20223;-52
2021/12/07 01:27:34;;;;;;;3.15;2.95;;;;;;;;;;4993328;28;20537;-53
2021/12/07 01:33:03;;;;;;;3.28;2.95;;;;;;;;;;4992965;28;20266;-52
2021/12/07 01:35:53;;;;;;;3.00;2.70;;;;;;;;;;4992867;28;20197;-53
2021/12/07 01:38:34;;;;;;;3.97;3.58;;;;;;;;;;4992824;28;20165;-52
2021/12/07 01:41:20;;;;;;;3.35;3.15;;;;;;;;;;4992567;28;20219;-53
2021/12/07 01:44:08;;;;;;;3.92;3.55;;;;;;;;;;4992751;28;20272;-52
2021/12/07 02:00:24;;;;;;;5.28;3.95;;;;;;;;;;4992351;28;20188;-53
2021/12/07 02:02:50;;;;;;;5.88;4.60;;;;;;;;;;4991598;28;20192;-52
2021/12/07 02:05:17;;;;;;;5.70;4.80;;;;;;;;;;4991853;28;20172;-52
2021/12/07 02:07:43;;;;;;;5.18;4.30;;;;;;;;;;4992244;28;20443;-51
2021/12/07 02:10:14;;;;;;;6.57;5.50;;;;;;;;;;4992214;28;20179;-53
2021/12/07 02:12:45;;;;;;;4.40;4.00;;;;;;;;;;4992224;28;20440;-52
2021/12/07 02:15:12;;;;;;;5.70;4.55;;;;;;;;;;4992401;28;20185;-53
2021/12/07 02:17:39;;;;;;;5.47;4.45;;;;;;;;;;4994132;28;20173;-53
2021/12/07 02:20:06;;;;;;;5.75;5.25;;;;;;;;;;4995915;28;20695;-52
2021/12/07 02:22:32;;;;;;;6.25;5.40;;;;;;;;;;4996064;28;20321;-52
2021/12/07 02:24:58;;;;;;;5.30;4.50;;;;;;;;;;4996312;28;20179;-52
2021/12/07 02:27:24;;;;;;;7.18;5.65;;;;;;;;;;4996271;28;20214;-52
2021/12/07 02:29:50;;;;;;;6.00;5.32;;;;;;;;;;4996005;28;20593;-52
2021/12/07 02:32:16;;;;;;;6.20;5.10;;;;;;;;;;4995985;28;20201;-52
2021/12/07 02:34:53;;;;;;;6.80;6.10;;;;;;;;;;4995921;28;20550;-52
2021/12/07 02:37:23;;;;;;;5.28;4.78;;;;;;;;;;4996123;28;20156;-52
2021/12/07 02:39:49;;;;;;;8.18;6.05;;;;;;;;;;4995998;28;20317;-52
2021/12/07 02:42:15;;;;;;;8.30;5.53;;;;;;;;;;4995909;28;20183;-52
2021/12/07 02:44:41;;;;;;;5.25;4.75;;;;;;;;;;4996018;28;20173;-51
2021/12/07 02:47:07;;;;;;;9.15;6.38;;;;;;;;;;5019592;22;20167;-50
2021/12/07 02:49:33;;;;;;;7.28;5.65;;;;;;;;;;4995147;28;20212;-49
2021/12/07 02:52:00;;;;;;;7.28;4.90;;;;;;;;;;4995108;28;20177;-49
2021/12/07 02:54:26;;;;;;;9.55;7.22;;;;;;;;;;4995644;28;20165;-49
2021/12/07 02:56:52;;;;;;;8.02;6.00;;;;;;;;;;4995703;28;20165;-48
2021/12/07 02:59:20;;;;;;;7.57;6.10;;;;;;;;;;4995512;28;20197;-49
2021/12/07 03:01:54;;;;;;;10.40;6.85;;;;;;;;;;4995271;28;20172;-49
2021/12/07 03:04:26;;;;;;;9.75;6.93;;;;;;;;;;4995544;28;20183;-50
2021/12/07 03:07:14;;;;;;;10.63;7.43;;;;;;;;;;4995477;28;20169;-48
2021/12/07 03:28:25;;;;;;;17.10;10.60;;;;;;;;;;4994446;28;20202;-49
2021/12/07 03:30:51;;;;;;;15.50;10.90;;;;;;;;;;4994559;28;20650;-48
2021/12/07 03:33:17;;;;;;;17.40;10.85;;;;;;;;;;4994907;28;20271;-49
2021/12/07 03:35:43;;;;;;;18.50;11.20;;;;;;;;;;4995011;28;20317;-48
2021/12/07 03:38:10;;;;;;;17.20;10.50;;;;;;;;;;4994850;28;20435;-49
2021/12/07 03:40:36;;;;;;;17.10;12.57;;;;;;;;;;4994542;28;20411;-49
2021/12/07 03:43:03;;;;;;;17.40;11.88;;;;;;;;;;4994911;28;20193;-50
2021/12/07 03:45:29;;;;;;;18.95;13.00;;;;;;;;;;4994712;28;20238;-48
2021/12/07 03:47:55;;;;;;;22.25;13.68;;;;;;;;;;4994624;28;20212;-48
2021/12/07 03:50:22;;;;;;;23.63;15.00;;;;;;;;;;4994882;28;20586;-49
2021/12/07 03:52:48;;;;;;;27.65;14.77;;;;;;;;;;4994610;28;20172;-49
2021/12/07 03:55:14;;;;;;;23.38;14.07;;;;;;;;;;4994526;28;20198;-48
2021/12/07 03:57:40;;;;;;;27.05;15.32;;;;;;;;;;4994451;28;20185;-48
2021/12/07 04:00:08;;;;;;;23.60;14.60;;;;;;;;;;4994198;28;20169;-49
2021/12/07 04:02:39;;;;;;;29.50;15.88;;;;;;;;;;4994378;28;20189;-48
2021/12/07 04:05:10;;;;;;;27.90;16.38;;;;;;;;;;4994459;28;20168;-50
2021/12/07 04:07:36;;;;;;;28.30;16.38;;;;;;;;;;4994353;28;20187;-49
2021/12/07 04:10:02;;;;;;;23.33;14.43;;;;;;;;;;4994027;28;20252;-49
2021/12/07 04:12:28;;;;;;;30.27;18.70;;;;;;;;;;4994293;28;20415;-48
2021/12/07 04:14:54;;;;;;;32.10;20.30;;;;;;;;;;4994071;28;20205;-49
2021/12/07 04:17:20;;;;;;;28.07;18.27;;;;;;;;;;4994096;28;20482;-50
2021/12/07 04:19:46;;;;;;;38.37;19.63;;;;;;;;;;4994107;28;20839;-50
2021/12/07 04:22:12;;;;;;;40.40;20.50;;;;;;;;;;4993992;28;20416;-49
2021/12/07 04:24:38;;;;;;;33.70;18.53;;;;;;;;;;4994038;28;20432;-48
2021/12/07 04:27:05;;;;;;;43.67;20.17;;;;;;;;;;4993887;28;20408;-49
2021/12/07 04:29:31;;;;;;;38.45;20.40;;;;;;;;;;4994351;28;20931;-49
2021/12/07 04:31:57;;;;;;;34.23;19.43;;;;;;;;;;4994167;28;20252;-49
2021/12/07 04:34:23;;;;;;;31.45;18.10;;;;;;;;;;4993738;28;20439;-49
2021/12/07 04:36:49;;;;;;;33.53;17.80;;;;;;;;;;4993788;28;20204;-49
2021/12/07 04:39:15;;;;;;;30.17;16.92;;;;;;;;;;4993677;28;20871;-49
2021/12/07 04:41:43;;;;;;;34.17;19.00;;;;;;;;;;4993394;28;20180;-49
2021/12/07 04:44:10;;;;;;;30.13;16.02;;;;;;;;;;4993664;28;20393;-49
2021/12/07 04:46:45;;;;;;;27.17;14.50;;;;;;;;;;4993624;28;20255;-49
2021/12/07 04:57:47;;;;;;;32.28;15.98;;;;;;;;;;4993385;28;20280;-48
2021/12/07 05:00:15;;;;;;;31.58;15.48;;;;;;;;;;4993135;28;20173;-49
2021/12/07 05:02:45;;;;;;;29.25;14.88;;;;;;;;;;4993245;28;20183;-49
2021/12/07 05:05:13;;;;;;;27.77;15.60;;;;;;;;;;4993259;28;20172;-49
2021/12/07 05:07:46;;;;;;;27.88;16.02;;;;;;;;;;4993145;28;20193;-49
2021/12/07 05:10:25;;;;;;;28.15;14.77;;;;;;;;;;4992933;28;20169;-50
2021/12/07 05:18:59;;;;;;;33.58;16.35;;;;;;;;;;4993009;28;20204;-49
2021/12/07 05:24:03;;;;;;;28.67;15.85;;;;;;;;;;4992866;28;20193;-50
2021/12/07 05:37:41;;;;;;;33.55;15.57;;;;;;;;;;4992988;28;20212;-49
2021/12/07 05:40:21;;;;;;;42.17;16.35;;;;;;;;;;4992635;28;20742;-49
2021/12/07 05:42:47;;;;;;;32.03;15.82;;;;;;;;;;4992894;28;20203;-49
2021/12/07 05:45:16;;;;;;;36.95;15.88;;;;;;;;;;4992619;28;20260;-50
2021/12/07 05:47:42;;;;;;;36.13;16.17;;;;;;;;;;4992420;28;20714;-49
2021/12/07 05:50:09;;;;;;;27.13;14.70;;;;;;;;;;4992809;28;20180;-49
2021/12/07 05:52:35;;;;;;;27.10;15.88;;;;;;;;;;4992194;28;20177;-48
2021/12/07 05:55:01;;;;;;;32.07;15.37;;;;;;;;;;4992467;28;20219;-49
2021/12/07 05:57:27;;;;;;;36.38;16.13;;;;;;;;;;4992469;28;20940;-49
2021/12/07 05:59:53;;;;;;;31.83;16.55;;;;;;;;;;4992139;28;20559;-48
2021/12/07 06:02:19;;;;;;;27.50;15.53;;;;;;;;;;4992488;28;20173;-49
2021/12/07 06:04:45;;;;;;;37.10;16.95;;;;;;;;;;4992500;28;20404;-49
2021/12/07 06:07:11;;;;;;;33.87;17.23;;;;;;;;;;4992283;28;20177;-49
2021/12/07 06:09:38;;;;;;;33.60;16.10;;;;;;;;;;4992324;28;20410;-49
2021/12/07 06:12:04;;;;;;;39.53;14.88;;;;;;;;;;4992215;28;20176;-49
2021/12/07 06:14:34;;;;;;;40.75;17.05;;;;;;;;;;4992505;28;20173;-49
2021/12/07 06:17:00;;;;;;;34.10;15.85;;;;;;;;;;4992309;28;20225;-48
2021/12/07 06:19:27;;;;;;;50.05;19.50;;;;;;;;;;4992334;28;20200;-50
2021/12/07 06:21:53;;;;;;;43.20;18.27;;;;;;;;;;4992447;28;20417;-49
2021/12/07 06:24:19;;;;;;;34.40;18.13;;;;;;;;;;4992487;28;20221;-48
2021/12/07 06:26:45;;;;;;;36.30;18.73;;;;;;;;;;4992344;28;20625;-48
2021/12/07 06:29:11;;;;;;;48.97;19.37;;;;;;;;;;4992207;28;20193;-49
2021/12/07 06:31:37;;;;;;;39.53;19.88;;;;;;;;;;4991967;28;20439;-50
2021/12/07 06:34:03;;;;;;;35.38;18.92;;;;;;;;;;4992302;28;20712;-50
2021/12/07 06:36:29;;;;;;;47.07;20.23;;;;;;;;;;4992095;28;20213;-49
2021/12/07 06:38:56;;;;;;;44.90;19.85;;;;;;;;;;4992301;28;20436;-49
2021/12/07 06:41:22;;;;;;;38.45;18.70;;;;;;;;;;4991944;28;20197;-49
2021/12/07 06:43:47;;;;;;;36.00;18.83;;;;;;;;;;4992072;28;20204;-49
2021/12/07 06:46:14;;;;;;;40.97;18.83;;;;;;;;;;4992159;28;20515;-49
2021/12/07 06:48:40;;;;;;;43.42;17.80;;;;;;;;;;4991900;28;20554;-49
2021/12/07 06:51:06;;;;;;;39.50;19.65;;;;;;;;;;4991691;28;20260;-49
2021/12/07 06:53:36;;;;;;;44.90;16.70;;;;;;;;;;4992251;28;20282;-49
2021/12/07 06:56:06;;;;;;;39.22;18.88;;;;;;;;;;4992185;28;20527;-49
2021/12/07 06:58:32;;;;;;;33.55;17.42;;;;;;;;;;4991885;28;20190;-48
2021/12/07 07:00:58;;;;;;;32.30;16.55;;;;;;;;;;4991649;28;20181;-49
2021/12/07 07:03:24;;;;;;;33.55;17.52;;;;;;;;;;4991888;28;20173;-49
2021/12/07 07:05:50;;;;;;;49.37;19.50;;;;;;;;;;4995246;28;20629;-48
2021/12/07 07:08:16;;;;;;;38.10;16.67;;;;;;;;;;4995332;28;20854;-49
2021/12/07 07:10:42;;;;;;;32.40;15.80;;;;;;;;;;4995054;28;20462;-50
2021/12/07 07:13:08;;;;;;;34.60;18.17;;;;;;;;;;4995313;28;20411;-50
2021/12/07 07:15:34;;;;;;;32.58;16.92;;;;;;;;;;4995186;28;20676;-50
2021/12/07 07:18:00;;;;;;;33.80;17.48;;;;;;;;;;4995141;28;20203;-49
2021/12/07 07:20:27;;;;;;;33.50;15.80;;;;;;;;;;4994965;28;20165;-50
2021/12/07 07:22:53;;;;;;;34.17;17.95;;;;;;;;;;4995139;28;20594;-49
2021/12/07 07:25:19;;;;;;;30.30;17.00;;;;;;;;;;4995165;28;20188;-49
2021/12/07 07:27:45;;;;;;;38.90;17.20;;;;;;;;;;4995002;28;20247;-50
2021/12/07 07:30:12;;;;;;;29.20;15.07;;;;;;;;;;4994795;28;20188;-49
2021/12/07 07:32:38;;;;;;;26.52;14.98;;;;;;;;;;4994954;28;20173;-50
2021/12/07 07:35:06;;;;;;;41.35;15.55;;;;;;;;;;4994917;28;20655;-49
2021/12/07 07:37:31;;;;;;;42.85;16.05;;;;;;;;;;4994871;28;20189;-48
2021/12/07 07:39:57;;;;;;;29.57;14.10;;;;;;;;;;4994698;28;20266;-49
2021/12/07 07:42:23;;;;;;;28.40;13.73;;;;;;;;;;4994839;28;20397;-49
2021/12/07 07:44:49;;;;;;;37.23;15.30;;;;;;;;;;4994822;28;20884;-49
2021/12/07 07:47:15;;;;;;;26.27;14.67;;;;;;;;;;4994462;28;20443;-49
2021/12/07 07:49:41;;;;;;;28.05;14.10;;;;;;;;;;4994666;28;20498;-49
2021/12/07 07:52:08;;;;;;;24.23;13.40;;;;;;;;;;4987264;28;20216;-48
2021/12/07 07:54:34;;;;;;;29.17;14.38;;;;;;;;;;4994378;28;20181;-49
2021/12/07 07:56:59;;;;;;;26.73;14.73;;;;;;;;;;4994440;28;20169;-48
2021/12/07 07:59:26;;;;;;;33.30;15.20;;;;;;;;;;4994371;28;20231;-49
2021/12/07 08:01:52;;;;;;;27.42;13.30;;;;;;;;;;4992192;28;20447;-49
2021/12/07 08:04:18;;;;;;;26.27;15.80;;;;;;;;;;4992534;28;20165;-49
2021/12/07 08:06:44;;;;;;;26.83;14.80;;;;;;;;;;4992701;28;20176;-48
2021/12/07 08:09:09;;;;;;;24.70;15.30;;;;;;;;;;4993506;28;20201;-48
2021/12/07 08:11:36;;;;;;;28.40;14.33;;;;;;;;;;4993865;28;20511;-50
2021/12/07 08:14:02;;;;;;;28.45;14.60;;;;;;;;;;4994060;28;20415;-48
2021/12/07 08:16:28;;;;;;;29.70;14.88;;;;;;;;;;4993679;28;20229;-50
2021/12/07 08:18:54;;;;;;;25.17;13.55;;;;;;;;;;4994093;28;20251;-49
2021/12/07 08:21:21;;;;;;;30.67;14.23;;;;;;;;;;4993853;28;20252;-48
2021/12/07 08:23:47;;;;;;;30.10;14.45;;;;;;;;;;4994125;28;20400;-49
2021/12/07 08:26:14;;;;;;;32.45;14.93;;;;;;;;;;4994052;28;20173;-50
2021/12/07 08:28:40;;;;;;;24.75;12.60;;;;;;;;;;4993886;28;20201;-49
2021/12/07 08:31:06;;;;;;;36.25;13.35;;;;;;;;;;4993577;28;20172;-51
2021/12/07 08:33:32;;;;;;;22.23;13.43;;;;;;;;;;4993821;28;20208;-50
2021/12/07 08:36:00;;;;;;;36.42;13.00;;;;;;;;;;4994013;28;20200;-49
2021/12/07 08:38:26;;;;;;;36.78;13.00;;;;;;;;;;4993741;28;20184;-49
2021/12/07 08:40:55;;;;;;;20.23;10.40;;;;;;;;;;4993435;28;20205;-48
2021/12/07 08:43:25;;;;;;;24.25;12.27;;;;;;;;;;4994155;28;20236;-49
2021/12/07 08:45:51;;;;;;;22.38;11.23;;;;;;;;;;4993618;28;20244;-50
2021/12/07 08:48:18;;;;;;;18.13;11.02;;;;;;;;;;5020809;23;20234;-50
2021/12/07 08:50:44;;;;;;;19.15;10.05;;;;;;;;;;5012497;28;20172;-50
2021/12/07 08:53:12;;;;;;;19.73;10.30;;;;;;;;;;5013226;28;20622;-48
2021/12/07 09:01:09;;;;;;;19.45;11.25;;;;;;;;;;5012836;28;20198;-50
2021/12/07 09:03:35;;;;;;;20.53;10.70;;;;;;;;;;5012963;28;20204;-49
2021/12/07 09:06:01;;;;;;;23.85;11.18;;;;;;;;;;5012994;28;20577;-49
2021/12/07 09:08:27;;;;;;;17.85;9.32;;;;;;;;;;5012590;28;20196;-49
2021/12/07 09:10:53;;;;;;;19.03;11.27;;;;;;;;;;5012551;28;20230;-50
2021/12/07 09:13:20;;;;;;;19.50;10.80;;;;;;;;;;5012788;28;20494;-49
2021/12/07 09:15:46;;;;;;;15.00;11.25;;;;;;;;;;5012692;28;20196;-48
2021/12/07 09:18:12;;;;;;;24.08;12.73;;;;;;;;;;5012777;28;20626;-49
2021/12/07 09:20:38;;;;;;;22.83;10.57;;;;;;;;;;5012396;28;20666;-49
2021/12/07 09:23:05;;;;;;;17.53;10.70;;;;;;;;;;5012392;28;20176;-48
2021/12/07 09:25:31;;;;;;;18.80;9.57;;;;;;;;;;5012520;28;20549;-48
2021/12/07 09:27:57;;;;;;;17.33;9.82;;;;;;;;;;5011889;28;20615;-49
2021/12/07 09:30:23;;;;;;;19.33;9.65;;;;;;;;;;5012213;28;20178;-49
2021/12/07 09:32:49;;;;;;;25.00;10.18;;;;;;;;;;5012698;28;20307;-50
2021/12/07 09:35:16;;;;;;;18.77;8.87;;;;;;;;;;5012414;28;20262;-49
2021/12/07 09:37:42;;;;;;;23.35;10.77;;;;;;;;;;5012706;28;20895;-50
2021/12/07 09:40:10;;;;;;;17.60;9.30;;;;;;;;;;5012076;28;20177;-49
2021/12/07 09:42:36;;;;;;;21.27;10.13;;;;;;;;;;5012286;28;20482;-50
2021/12/07 09:45:04;;;;;;;17.33;9.40;;;;;;;;;;5012294;28;20267;-50
2021/12/07 09:47:32;;;;;;;22.88;11.15;;;;;;;;;;5012180;28;20522;-49
2021/12/07 09:49:57;;;;;;;14.87;9.97;;;;;;;;;;5011176;28;20707;-49
2021/12/07 09:52:24;;;;;;;23.77;10.43;;;;;;;;;;5012061;28;20498;-49
2021/12/07 09:54:51;;;;;;;17.85;9.55;;;;;;;;;;5012004;28;20810;-48
2021/12/07 09:57:16;;;;;;;20.23;10.48;;;;;;;;;;5012133;28;20604;-49
2021/12/07 09:59:43;;;;;;;22.53;10.03;;;;;;;;;;5011895;28;20208;-48
2021/12/07 10:02:09;;;;;;;12.10;9.20;;;;;;;;;;5011867;28;20498;-50
2021/12/07 10:04:35;;;;;;;19.00;9.90;;;;;;;;;;5012221;28;20199;-49
2021/12/07 10:07:02;;;;;;;18.52;8.93;;;;;;;;;;5012028;28;20197;-49
2021/12/07 10:09:28;;;;;;;17.65;8.98;;;;;;;;;;5012340;28;20195;-49
2021/12/07 10:11:54;;;;;;;21.67;10.10;;;;;;;;;;5011959;28;20523;-49
2021/12/07 10:14:20;;;;;;;21.42;10.40;;;;;;;;;;5012026;28;20404;-49
2021/12/07 10:16:48;;;;;;;16.02;8.65;;;;;;;;;;5011979;28;20204;-48
2021/12/07 10:19:26;;;;;;;10.25;8.15;;;;;;;;;;5012198;28;20177;-49
2021/12/07 10:21:59;;;;;;;21.83;8.32;;;;;;;;;;5011487;28;20164;-49
2021/12/07 10:24:27;;;;;;;14.50;7.45;;;;;;;;;;5010987;28;20157;-49
2021/12/07 10:26:53;;;;;;;16.00;8.80;;;;;;;;;;5012011;28;20164;-48
2021/12/07 10:29:21;;;;;;;14.77;8.67;;;;;;;;;;5011891;28;20731;-48
2021/12/07 10:31:52;;;;;;;19.70;8.00;;;;;;;;;;5015308;28;20800;-49
2021/12/07 10:34:25;;;;;;;14.77;9.27;;;;;;;;;;5012144;28;20713;-50
2021/12/07 10:36:53;;;;;;;11.55;8.00;;;;;;;;;;5004401;28;20215;-50
2021/12/07 10:39:21;;;;;;;21.95;8.05;;;;;;;;;;5015054;28;20199;-49
2021/12/07 10:41:56;;;;;;;19.15;8.50;;;;;;;;;;5015509;28;20272;-50
2021/12/07 10:44:23;;;;;;;13.95;8.18;;;;;;;;;;5015874;28;20181;-47
2021/12/07 10:46:51;;;;;;;14.48;8.63;;;;;;;;;;5015214;28;20199;-49
2021/12/07 10:49:36;;;;;;;18.63;8.65;;;;;;;;;;5015901;28;20204;-49
2021/12/07 10:52:05;;;;;;;16.73;7.30;;;;;;;;;;5015679;28;20168;-49
2021/12/07 10:54:33;;;;;;;15.07;8.52;;;;;;;;;;5015641;28;20172;-48
2021/12/07 10:57:02;;;;;;;21.52;8.77;;;;;;;;;;5015413;28;20160;-49
2021/12/07 10:59:28;;;;;;;19.00;9.02;;;;;;;;;;5015051;28;20188;-48
2021/12/07 11:01:54;;;;;;;16.73;8.20;;;;;;;;;;5013501;28;20180;-49
2021/12/07 11:04:33;;;;;;;21.95;9.48;;;;;;;;;;5013949;28;20176;-50
2021/12/07 11:07:18;;;;;;;11.00;7.90;;;;;;;;;;5014888;28;20169;-49
2021/12/07 11:09:57;;;;;;;9.17;6.83;;;;;;;;;;5015084;28;20569;-50
2021/12/07 11:12:25;;;;;;;11.47;6.37;;;;;;;;;;5015483;28;20434;-49
2021/12/07 11:14:53;;;;;;;18.67;7.70;;;;;;;;;;5015358;28;20777;-50
2021/12/07 11:17:31;;;;;;;13.30;6.10;;;;;;;;;;5015644;28;20404;-50
2021/12/07 11:19:56;;;;;;;10.43;6.93;;;;;;;;;;5014897;28;20402;-48
2021/12/07 11:22:25;;;;;;;10.80;6.07;;;;;;;;;;5015540;28;20399;-50
2021/12/07 11:24:52;;;;;;;16.47;6.50;;;;;;;;;;5015455;28;20770;-49
2021/12/07 11:30:09;;;;;;;18.47;5.80;;;;;;;;;;5014924;28;20810;-49
2021/12/07 11:32:35;;;;;;;16.13;6.00;;;;;;;;;;5015028;28;20406;-50
2021/12/07 11:35:13;;;;;;;14.60;5.63;;;;;;;;;;5014810;28;20536;-50
2021/12/07 11:37:39;;;;;;;11.67;5.33;;;;;;;;;;5015252;28;20887;-51
2021/12/07 11:40:06;;;;;;;17.10;5.40;;;;;;;;;;5015550;28;20958;-50
2021/12/07 11:42:38;;;;;;;11.07;5.60;;;;;;;;;;5015644;28;20458;-50
2021/12/07 11:45:12;;;;;;;11.43;5.57;;;;;;;;;;5016118;28;20410;-51
2021/12/07 11:47:41;;;;;;;13.20;5.77;;;;;;;;;;5015551;28;20428;-49
2021/12/07 11:50:19;;;;;;;7.77;5.67;;;;;;;;;;5014904;28;20440;-50
2021/12/07 11:52:46;;;;;;;8.23;5.07;;;;;;;;;;5014467;28;20433;-50
2021/12/07 11:55:13;;;;;;;12.33;5.90;;;;;;;;;;5014761;28;20518;-50
2021/12/07 11:57:39;;;;;;;14.73;6.50;;;;;;;;;;5014338;28;20403;-51
2021/12/07 12:00:10;;;;;;;12.53;6.20;;;;;;;;;;5014109;28;20407;-51
2021/12/07 12:02:36;;;;;;;15.57;5.80;;;;;;;;;;5014340;28;20910;-49
2021/12/07 12:05:02;;;;;;;12.67;5.37;;;;;;;;;;5014146;28;20403;-49
2021/12/07 12:07:28;;;;;;;12.33;6.10;;;;;;;;;;5014181;28;20407;-49
2021/12/07 12:09:55;;;;;;;16.57;6.80;;;;;;;;;;5013941;28;20417;-50
2021/12/07 12:12:30;;;;;;;17.10;7.43;;;;;;;;;;5014142;28;20770;-51
2021/12/07 12:15:11;;;;;;;8.40;6.83;;;;;;;;;;5014141;28;20450;-51
2021/12/07 12:17:46;;;;;;;16.17;7.30;;;;;;;;;;5014275;28;20410;-50
2021/12/07 12:20:26;;;;;;;11.20;6.47;;;;;;;;;;5013680;28;20405;-51
2021/12/07 12:23:02;;;;;;;10.93;6.37;;;;;;;;;;5014303;28;20474;-51
2021/12/07 12:25:29;;;;;;;19.83;6.70;;;;;;;;;;5014046;28;20964;-51
2021/12/07 12:27:55;;;;;;;10.80;6.63;;;;;;;;;;5014036;28;20465;-51
2021/12/07 12:30:30;;;;;;;10.30;6.03;;;;;;;;;;5013763;28;20490;-49
2021/12/07 12:33:10;;;;;;;13.33;6.63;;;;;;;;;;5013873;28;20411;-50
2021/12/07 12:35:40;;;;;;;14.00;7.70;;;;;;;;;;5014116;28;20461;-51
2021/12/07 12:38:15;;;;;;;14.97;7.83;;;;;;;;;;5013897;28;20783;-50
2021/12/07 12:40:41;;;;;;;10.70;6.80;;;;;;;;;;5013462;28;20395;-49
2021/12/07 12:43:07;;;;;;;13.03;6.47;;;;;;;;;;5013417;28;20407;-50
2021/12/07 12:45:39;;;;;;;18.00;8.60;;;;;;;;;;5013420;28;20418;-51
2021/12/07 12:48:12;;;;;;;20.83;8.20;;;;;;;;;;5013398;28;20918;-51
2021/12/07 12:50:46;;;;;;;14.23;7.10;;;;;;;;;;5013354;28;20915;-50
2021/12/07 12:53:18;;;;;;;15.43;6.70;;;;;;;;;;5013443;28;20412;-52
2021/12/07 12:55:46;;;;;;;10.53;7.10;;;;;;;;;;5013024;28;20459;-51
2021/12/07 12:58:20;;;;;;;23.13;8.47;;;;;;;;;;5013538;28;20431;-51
2021/12/07 13:01:05;;;;;;;13.33;6.40;;;;;;;;;;5005182;28;20755;-49
2021/12/07 13:03:43;;;;;;;16.47;6.17;;;;;;;;;;5011033;28;20401;-49
2021/12/07 13:06:12;;;;;;;10.00;5.13;;;;;;;;;;5011589;28;20402;-50
2021/12/07 13:09:10;;;;;;;9.83;5.07;;;;;;;;;;5011583;28;20921;-50
2021/12/07 13:11:36;;;;;;;12.07;4.40;;;;;;;;;;4989236;28;20456;-50
2021/12/07 13:14:04;;;;;;;10.53;5.53;;;;;;;;;;5013235;28;20426;-50
2021/12/07 13:16:33;;;;;;;9.83;4.00;;;;;;;;;;5012702;28;20521;-51
2021/12/07 13:19:07;;;;;;;13.87;4.00;;;;;;;;;;5013087;28;20929;-50
2021/12/07 13:21:37;;;;;;;12.20;3.43;;;;;;;;;;5012709;28;20407;-50
2021/12/07 13:24:04;;;;;;;5.43;3.47;;;;;;;;;;5012782;28;20484;-50
2021/12/07 13:26:38;;;;;;;12.33;4.40;;;;;;;;;;5012875;28;20422;-49
2021/12/07 13:29:10;;;;;;;8.83;3.90;;;;;;;;;;5012604;28;21064;-50
2021/12/07 13:31:44;;;;;;;13.60;3.93;;;;;;;;;;5012593;28;20436;-49
2021/12/07 13:34:10;;;;;;;10.07;3.90;;;;;;;;;;5012621;28;20406;-51
2021/12/07 13:36:36;;;;;;;11.20;3.73;;;;;;;;;;5012559;28;20469;-51
2021/12/07 13:39:29;;;;;;;13.53;4.33;;;;;;;;;;5012641;28;20426;-50
2021/12/07 13:42:00;;;;;;;6.90;3.83;;;;;;;;;;4996791;28;20412;-50
2021/12/07 13:44:27;;;;;;;8.00;4.50;;;;;;;;;;5012544;28;20405;-50
2021/12/07 13:47:01;;;;;;;7.47;3.80;;;;;;;;;;5012418;28;20410;-48
2021/12/07 13:49:27;;;;;;;22.73;4.80;;;;;;;;;;5012414;28;20949;-48
2021/12/07 13:51:53;;;;;;;4.80;3.83;;;;;;;;;;5012258;28;20407;-50
2021/12/07 13:54:20;;;;;;;13.73;4.17;;;;;;;;;;5012624;28;20827;-50
2021/12/07 13:56:47;;;;;;;10.50;3.50;;;;;;;;;;5012453;28;20485;-49
2021/12/07 13:59:15;;;;;;;7.93;3.43;;;;;;;;;;5012589;28;20424;-50
2021/12/07 14:01:42;;;;;;;7.67;3.80;;;;;;;;;;5012136;28;20409;-49
2021/12/07 14:04:08;;;;;;;11.23;3.47;;;;;;;;;;5012522;28;20411;-50
2021/12/07 14:06:35;;;;;;;8.90;3.70;;;;;;;;;;5012350;28;20439;-49
2021/12/07 14:09:03;;;;;;;10.20;3.70;;;;;;;;;;5012191;28;20437;-49
2021/12/07 14:11:29;;;;;;;9.17;3.27;;;;;;;;;;5012453;28;20773;-49
2021/12/07 14:13:55;;;;;;;7.70;3.20;;;;;;;;;;5014816;28;20408;-49
2021/12/07 14:16:25;;;;;;;3.50;2.70;;;;;;;;;;5016320;28;20455;-48
2021/12/07 14:18:51;;;;;;;6.17;3.23;;;;;;;;;;5016037;28;20421;-48
2021/12/07 14:21:17;;;;;;;3.90;2.70;;;;;;;;;;5015809;28;20934;-48
2021/12/07 14:23:44;;;;;;;5.83;2.97;;;;;;;;;;5016009;28;20448;-49
2021/12/07 14:26:21;;;;;;;6.13;2.70;;;;;;;;;;5015979;28;20403;-48
2021/12/07 14:28:51;;;;;;;7.85;3.15;;;;;;;;;;5016085;28;20778;-50
2021/12/07 14:31:22;;;;;;;3.93;2.30;;;;;;;;;;5015507;28;20518;-50
2021/12/07 14:33:50;;;;;;;8.93;2.60;;;;;;;;;;5015741;28;20409;-49
2021/12/07 14:36:20;;;;;;;3.33;3.10;;;;;;;;;;5016216;28;20849;-50
2021/12/07 14:38:50;;;;;;;7.57;2.95;;;;;;;;;;5016066;28;20942;-50
2021/12/07 14:41:17;;;;;;;11.35;3.50;;;;;;;;;;5015438;28;20580;-49
2021/12/07 14:43:43;;;;;;;2.40;2.20;;;;;;;;;;5015907;28;20174;-50
2021/12/07 14:46:13;;;;;;;12.43;2.90;;;;;;;;;;5015532;28;20173;-50
2021/12/07 14:48:39;;;;;;;9.77;2.90;;;;;;;;;;5016075;28;20203;-48
2021/12/07 14:51:10;;;;;;;8.07;3.20;;;;;;;;;;5015201;28;20173;-48
2021/12/07 14:53:40;;;;;;;2.92;2.00;;;;;;;;;;5015307;28;20196;-47
2021/12/07 14:56:06;;;;;;;3.10;2.05;;;;;;;;;;5015304;28;20254;-50
2021/12/07 14:58:36;;;;;;;2.33;2.13;;;;;;;;;;5015110;28;20192;-49
2021/12/07 15:01:04;;;;;;;4.80;2.38;;;;;;;;;;5014972;28;20161;-48
2021/12/07 15:03:44;;;;;;;6.38;2.50;;;;;;;;;;5013519;28;20180;-48
2021/12/07 15:06:11;;;;;;;9.55;3.00;;;;;;;;;;5015199;28;20168;-47
2021/12/07 15:08:39;;;;;;;6.30;4.10;;;;;;;;;;5014965;28;20188;-48
2021/12/07 15:11:06;;;;;;;3.80;3.03;;;;;;;;;;5014612;28;20195;-47
2021/12/07 15:13:33;;;;;;;3.35;2.08;;;;;;;;;;5014964;28;20168;-48
2021/12/07 15:16:00;;;;;;;4.30;2.17;;;;;;;;;;5015070;28;20207;-47
2021/12/07 15:18:27;;;;;;;4.70;3.08;;;;;;;;;;5015134;28;20550;-47
2021/12/07 15:20:53;;;;;;;3.15;2.40;;;;;;;;;;5014568;28;20252;-47
2021/12/07 15:23:19;;;;;;;6.20;3.20;;;;;;;;;;5014924;28;20567;-48
2021/12/07 15:25:53;;;;;;;7.47;2.67;;;;;;;;;;5013471;28;20673;-48
2021/12/07 15:28:19;;;;;;;5.15;2.85;;;;;;;;;;5014617;28;20192;-47
2021/12/07 15:30:46;;;;;;;6.97;2.95;;;;;;;;;;5014386;28;20255;-47
2021/12/07 15:33:12;;;;;;;4.45;2.88;;;;;;;;;;5014687;28;20831;-47
2021/12/07 15:35:38;;;;;;;2.33;2.13;;;;;;;;;;5014375;28;20291;-47
2021/12/07 15:38:05;;;;;;;5.03;2.77;;;;;;;;;;5014313;28;20271;-48
2021/12/07 15:40:31;;;;;;;5.65;3.13;;;;;;;;;;5013894;28;20957;-47
2021/12/07 15:42:57;;;;;;;7.30;3.20;;;;;;;;;;5014411;28;20165;-48
2021/12/07 15:45:23;;;;;;;6.43;2.87;;;;;;;;;;5014297;28;20922;-50
2021/12/07 15:47:51;;;;;;;7.43;3.03;;;;;;;;;;5014137;28;20513;-48
2021/12/07 15:50:19;;;;;;;6.15;2.72;;;;;;;;;;5014038;28;20171;-47
2021/12/07 15:52:49;;;;;;;5.15;2.92;;;;;;;;;;5014102;28;20180;-47
2021/12/07 15:55:17;;;;;;;4.70;2.88;;;;;;;;;;5014147;28;20550;-48
2021/12/07 15:57:47;;;;;;;3.97;2.72;;;;;;;;;;5014053;28;20172;-47
2021/12/07 16:00:17;;;;;;;6.38;3.40;;;;;;;;;;5013737;28;20168;-47
2021/12/07 16:02:50;;;;;;;4.65;2.97;;;;;;;;;;5014026;28;20196;-48
2021/12/07 16:05:17;;;;;;;8.10;3.10;;;;;;;;;;5009661;28;20234;-48